Time;durP1;ratioP1;P1;durP2;ratioP2;P2;SDS_P1;SDS_P2;PMS_P1;PMS_P2;Temp;Humidity;BMP_temperature;BMP_pressure;BME280_temperature;BME280_humidity;BME280_pressure;Samples;Min_cycle;Max_cycle;Signal;HPM_P1;HPM_P2
2023/02/19 00:01:58;;;;;;;32.45;17.17;;;10.00;99.90;;;;;;4866180;29;20052;-91
2023/02/19 00:04:26;;;;;;;34.10;16.65;;;10.00;99.90;;;;;;4866122;29;20087;-91
2023/02/19 00:06:56;;;;;;;37.90;19.67;;;10.00;99.90;;;;;;4850792;29;20455;-91
2023/02/19 00:09:24;;;;;;;40.08;19.08;;;10.00;99.90;;;;;;4851086;29;20064;-91
2023/02/19 00:11:52;;;;;;;35.70;17.85;;;10.00;99.90;;;;;;4866237;29;20140;-91
2023/02/19 00:14:21;;;;;;;37.80;18.55;;;10.00;99.90;;;;;;4879914;29;20049;-92
2023/02/19 00:16:53;;;;;;;39.58;18.20;;;10.00;99.90;;;;;;4880071;29;20052;-92
2023/02/19 00:19:30;;;;;;;42.08;18.70;;;10.00;99.90;;;;;;4865836;29;20100;-92
2023/02/19 00:21:57;;;;;;;32.72;17.65;;;10.00;99.90;;;;;;4866118;29;20080;-91
2023/02/19 00:24:27;;;;;;;31.15;18.08;;;10.00;99.90;;;;;;4850677;29;20073;-92
2023/02/19 00:26:54;;;;;;;37.22;17.70;;;10.00;99.90;;;;;;4850690;29;20041;-91
2023/02/19 00:29:23;;;;;;;36.88;18.60;;;10.00;99.90;;;;;;4850806;29;20045;-91
2023/02/19 00:32:02;;;;;;;35.67;18.50;;;10.00;99.90;;;;;;4879641;29;20083;-92
2023/02/19 00:34:32;;;;;;;30.45;16.20;;;10.00;99.90;;;;;;4847786;29;20106;-90
2023/02/19 00:36:59;;;;;;;28.70;16.10;;;10.00;99.90;;;;;;4852540;29;20558;-91
2023/02/19 00:39:26;;;;;;;30.17;16.50;;;10.00;99.90;;;;;;4865681;29;20045;-91
2023/02/19 00:41:56;;;;;;;28.90;15.05;;;10.00;99.90;;;;;;4884067;29;20048;-91
2023/02/19 00:44:26;;;;;;;32.55;16.45;;;10.00;99.90;;;;;;4877662;29;20051;-90
2023/02/19 00:46:54;;;;;;;32.83;16.23;;;10.00;99.90;;;;;;4835426;29;20053;-91
2023/02/19 00:49:22;;;;;;;31.27;16.67;;;10.00;99.90;;;;;;4860008;29;20056;-91
2023/02/19 00:51:51;;;;;;;33.45;16.02;;;10.00;99.90;;;;;;4865282;29;20056;-92
2023/02/19 00:54:21;;;;;;;35.33;17.02;;;10.00;99.90;;;;;;4850144;29;20045;-91
2023/02/19 00:57:15;;;;;;;32.42;17.15;;;10.00;99.90;;;;;;4850453;29;20053;-92
2023/02/19 00:59:49;;;;;;;32.08;17.45;;;10.00;99.90;;;;;;4836362;29;20049;-92
2023/02/19 01:02:19;;;;;;;28.80;16.73;;;10.00;99.90;;;;;;4877840;29;20052;-92
2023/02/19 01:04:46;;;;;;;27.35;15.93;;;10.00;99.90;;;;;;4890298;29;20049;-91
2023/02/19 01:07:27;;;;;;;27.00;14.57;;;9.90;99.90;;;;;;4873168;29;20041;-92
2023/02/19 01:10:07;;;;;;;33.25;16.20;;;9.90;99.90;;;;;;4871500;29;20045;-92
2023/02/19 01:12:37;;;;;;;31.02;16.25;;;9.90;99.90;;;;;;4865128;29;20493;-92
2023/02/19 01:15:07;;;;;;;29.02;15.57;;;9.90;99.90;;;;;;4849952;29;20409;-91
2023/02/19 01:17:38;;;;;;;25.05;13.70;;;9.90;99.90;;;;;;4864666;29;20132;-92
2023/02/19 01:20:05;;;;;;;28.58;14.80;;;9.90;99.90;;;;;;4849800;29;20048;-91
2023/02/19 01:22:34;;;;;;;30.92;15.75;;;9.90;99.90;;;;;;4851707;29;20049;-92
2023/02/19 01:25:01;;;;;;;27.25;16.20;;;9.90;99.90;;;;;;4865520;29;20072;-91
2023/02/19 01:27:28;;;;;;;33.38;17.25;;;9.90;99.90;;;;;;4860062;29;20037;-92
2023/02/19 01:29:55;;;;;;;35.15;16.02;;;9.90;99.90;;;;;;4883773;29;20060;-93
2023/02/19 01:32:26;;;;;;;30.92;15.27;;;9.90;99.90;;;;;;4874767;29;20056;-93
2023/02/19 01:34:54;;;;;;;24.80;13.65;;;9.90;99.90;;;;;;4864696;29;20075;-91
2023/02/19 01:37:21;;;;;;;23.58;12.35;;;9.90;99.90;;;;;;4856365;29;20053;-92
2023/02/19 01:39:48;;;;;;;29.35;13.93;;;9.90;99.90;;;;;;4846268;29;20133;-92
2023/02/19 01:42:16;;;;;;;26.83;14.25;;;9.90;99.90;;;;;;4867841;29;20048;-93
2023/02/19 01:44:46;;;;;;;29.73;14.82;;;9.90;99.90;;;;;;4864795;29;20045;-92
2023/02/19 01:47:16;;;;;;;31.17;15.35;;;10.00;99.90;;;;;;4846376;29;20049;-92
2023/02/19 01:49:53;;;;;;;27.80;15.18;;;10.00;99.90;;;;;;4846308;29;20068;-92
2023/02/19 01:52:30;;;;;;;26.02;13.98;;;9.90;99.90;;;;;;4852025;29;20059;-90
2023/02/19 01:55:04;;;;;;;24.70;13.48;;;10.00;99.90;;;;;;4874064;29;20049;-91
2023/02/19 01:57:42;;;;;;;30.95;16.42;;;9.90;99.90;;;;;;4852258;29;20442;-91
2023/02/19 02:00:15;;;;;;;34.58;16.20;;;9.90;99.90;;;;;;4849051;29;20083;-91
2023/02/19 02:02:46;;;;;;;23.88;13.52;;;9.90;99.90;;;;;;4864381;29;20045;-91
2023/02/19 02:05:37;;;;;;;22.58;12.98;;;9.90;99.90;;;;;;4846563;29;20045;-91
2023/02/19 02:10:54;;;;;;;20.73;11.98;;;9.90;99.90;;;;;;4879659;29;20059;-91
2023/02/19 02:13:22;;;;;;;26.85;13.95;;;9.90;99.90;;;;;;4864173;29;20055;-91
2023/02/19 02:15:59;;;;;;;24.42;12.93;;;9.90;99.90;;;;;;4864162;29;20057;-91
2023/02/19 02:18:53;;;;;;;24.08;13.43;;;9.90;99.90;;;;;;4836616;29;20045;-91
2023/02/19 02:21:23;;;;;;;23.40;13.30;;;9.90;99.90;;;;;;4876162;29;20052;-86
2023/02/19 02:24:10;;;;;;;25.27;12.60;;;9.80;99.90;;;;;;4871870;29;20459;-87
2023/02/19 02:26:52;;;;;;;22.63;11.68;;;9.80;99.90;;;;;;4862872;29;20056;-88
2023/02/19 02:29:38;;;;;;;19.33;11.20;;;9.80;99.90;;;;;;4862866;29;20109;-87
2023/02/19 02:32:32;;;;;;;19.27;10.82;;;9.80;99.90;;;;;;4837919;29;20053;-87
2023/02/19 02:35:12;;;;;;;22.92;11.90;;;9.80;99.90;;;;;;4847469;29;20057;-87
2023/02/19 02:37:43;;;;;;;22.88;12.45;;;9.80;99.90;;;;;;4862950;29;20498;-87
2023/02/19 02:40:11;;;;;;;18.15;10.57;;;9.70;99.90;;;;;;4847587;29;20056;-86
2023/02/19 02:42:39;;;;;;;17.02;9.48;;;9.70;99.90;;;;;;4862746;29;20467;-87
2023/02/19 02:45:35;;;;;;;21.35;10.20;;;9.70;99.90;;;;;;4862645;29;20049;-86
2023/02/19 02:48:29;;;;;;;17.02;9.55;;;9.70;99.90;;;;;;4869619;29;20060;-86
2023/02/19 02:51:15;;;;;;;19.80;10.13;;;9.70;99.90;;;;;;4862595;29;20144;-86
2023/02/19 02:56:53;;;;;;;16.60;8.38;;;9.60;99.90;;;;;;4877703;29;20137;-86
2023/02/19 02:59:27;;;;;;;24.15;9.77;;;9.60;99.90;;;;;;4844378;29;20041;-85
2023/02/19 03:02:18;;;;;;;18.05;9.48;;;9.60;99.90;;;;;;4857744;29;20057;-86
2023/02/19 03:08:03;;;;;;;16.95;8.13;;;9.70;99.90;;;;;;4874497;29;20049;-85
2023/02/19 03:10:43;;;;;;;15.07;7.80;;;9.60;99.90;;;;;;4847477;29;20045;-84
2023/02/19 03:19:38;;;;;;;13.65;7.45;;;9.60;99.90;;;;;;4877620;29;20068;-88
2023/02/19 03:22:41;;;;;;;15.95;7.68;;;9.70;99.90;;;;;;4862355;29;20045;-84
2023/02/19 03:31:18;;;;;;;17.07;7.60;;;9.60;99.90;;;;;;4851409;29;20049;-86
2023/02/19 03:33:53;;;;;;;17.77;7.50;;;9.60;99.90;;;;;;4865314;29;20302;-86
2023/02/19 03:36:25;;;;;;;16.27;7.88;;;9.60;99.90;;;;;;4865365;29;20445;-86
2023/02/19 03:39:03;;;;;;;14.20;7.88;;;9.60;99.90;;;;;;4855228;29;20048;-85
2023/02/19 03:41:42;;;;;;;12.48;6.22;;;9.60;99.90;;;;;;4864960;29;20105;-85
2023/02/19 03:44:35;;;;;;;13.50;7.00;;;9.60;99.90;;;;;;4865090;29;20462;-85
2023/02/19 03:47:24;;;;;;;14.30;6.43;;;9.60;99.90;;;;;;4863607;29;20067;-85
2023/02/19 03:50:00;;;;;;;13.05;6.93;;;9.60;99.90;;;;;;4864883;29;20049;-86
2023/02/19 03:52:53;;;;;;;11.48;5.72;;;9.60;99.90;;;;;;4862992;29;20053;-85
2023/02/19 03:55:44;;;;;;;9.20;5.35;;;9.60;99.90;;;;;;4849943;29;20112;-86
2023/02/19 03:58:34;;;;;;;9.60;5.28;;;9.60;99.90;;;;;;4864702;29;20065;-86
2023/02/19 04:01:10;;;;;;;12.23;4.72;;;9.70;99.90;;;;;;4875162;29;20046;-85
2023/02/19 04:03:59;;;;;;;8.65;4.65;;;9.60;99.90;;;;;;4864683;29;20132;-85
2023/02/19 04:06:29;;;;;;;14.27;5.00;;;9.70;99.90;;;;;;4874428;29;20116;-86
2023/02/19 04:09:00;;;;;;;9.57;4.95;;;9.70;99.90;;;;;;4867610;29;20083;-86
2023/02/19 04:11:30;;;;;;;8.40;4.88;;;9.70;99.90;;;;;;4864711;29;20053;-85
2023/02/19 04:14:08;;;;;;;6.72;4.05;;;9.70;99.90;;;;;;4865153;29;20049;-90
2023/02/19 04:16:41;;;;;;;8.52;4.53;;;9.70;99.90;;;;;;4866325;29;20057;-91
2023/02/19 04:19:13;;;;;;;9.63;4.53;;;9.70;99.90;;;;;;4865968;29;20056;-90
2023/02/19 04:21:41;;;;;;;10.77;4.80;;;9.70;99.90;;;;;;4866526;29;20049;-91
2023/02/19 04:24:21;;;;;;;9.80;4.95;;;9.70;99.90;;;;;;4853483;29;20075;-90
2023/02/19 04:26:49;;;;;;;9.52;4.10;;;9.70;99.90;;;;;;4883326;29;20041;-90
2023/02/19 04:29:16;;;;;;;9.32;5.20;;;9.70;99.90;;;;;;4868233;29;20060;-90
2023/02/19 04:31:45;;;;;;;10.88;5.78;;;9.70;99.90;;;;;;4879359;29;20061;-92
2023/02/19 04:34:12;;;;;;;10.38;5.20;;;9.60;99.90;;;;;;4865607;29;20049;-91
2023/02/19 04:36:40;;;;;;;8.85;4.28;;;9.60;99.90;;;;;;4850372;29;20107;-92
2023/02/19 04:39:07;;;;;;;8.98;4.57;;;9.60;99.90;;;;;;4865638;29;20141;-91
2023/02/19 04:41:35;;;;;;;11.02;5.55;;;9.60;99.90;;;;;;4865185;29;20136;-91
2023/02/19 04:44:03;;;;;;;7.47;4.32;;;9.60;99.90;;;;;;4856213;29;20093;-91
2023/02/19 04:46:30;;;;;;;7.90;4.60;;;9.60;99.90;;;;;;4881428;29;20405;-91
2023/02/19 04:48:59;;;;;;;9.00;4.10;;;9.60;99.90;;;;;;4865431;29;20049;-91
2023/02/19 04:51:26;;;;;;;7.65;3.88;;;9.60;99.90;;;;;;4847284;29;20383;-91
2023/02/19 04:53:56;;;;;;;7.38;3.58;;;9.60;99.90;;;;;;4865981;29;20055;-91
2023/02/19 04:56:26;;;;;;;10.10;3.95;;;9.60;99.90;;;;;;4865327;29;20045;-90
2023/02/19 04:58:55;;;;;;;9.98;4.20;;;9.60;99.90;;;;;;4849561;29;20105;-91
2023/02/19 05:01:23;;;;;;;12.50;4.22;;;9.60;99.90;;;;;;4849784;29;20117;-91
2023/02/19 05:03:51;;;;;;;10.52;4.95;;;9.50;99.90;;;;;;4865152;29;20076;-91
2023/02/19 05:06:18;;;;;;;11.13;4.78;;;9.50;99.90;;;;;;4865052;29;20045;-91
2023/02/19 05:08:46;;;;;;;12.20;5.07;;;9.50;99.90;;;;;;4864756;29;20144;-91
2023/02/19 05:11:13;;;;;;;9.73;4.88;;;9.50;99.90;;;;;;4856734;29;20045;-91
2023/02/19 05:13:40;;;;;;;14.27;4.30;;;9.50;99.90;;;;;;4858095;29;20414;-87
2023/02/19 05:16:14;;;;;;;8.45;3.95;;;9.50;99.90;;;;;;4863844;29;20571;-87
2023/02/19 05:18:44;;;;;;;10.10;4.70;;;9.50;99.90;;;;;;4878649;29;20498;-85
2023/02/19 05:21:14;;;;;;;13.02;4.93;;;9.50;99.90;;;;;;4848647;29;20455;-87
2023/02/19 05:23:42;;;;;;;11.52;4.60;;;9.40;99.90;;;;;;4852736;29;20045;-87
2023/02/19 05:26:19;;;;;;;10.48;4.30;;;9.50;99.90;;;;;;4863731;29;20115;-87
2023/02/19 05:28:53;;;;;;;10.50;4.78;;;9.50;99.90;;;;;;4848182;29;20049;-87
2023/02/19 05:31:23;;;;;;;10.35;4.88;;;9.50;99.90;;;;;;4852431;29;20494;-86
2023/02/19 05:33:54;;;;;;;10.35;5.05;;;9.50;99.90;;;;;;4848006;29;20093;-87
2023/02/19 05:36:24;;;;;;;7.53;4.00;;;9.50;99.90;;;;;;4863601;29;20049;-86
2023/02/19 05:38:53;;;;;;;12.00;4.82;;;9.50;99.90;;;;;;4848052;29;20041;-86
2023/02/19 05:41:24;;;;;;;12.77;4.90;;;9.50;99.90;;;;;;4848207;29;20139;-86
2023/02/19 05:43:56;;;;;;;10.98;5.35;;;9.50;99.90;;;;;;4863904;29;20049;-86
2023/02/19 05:46:31;;;;;;;9.48;5.50;;;9.40;99.90;;;;;;4863757;29;20081;-87
2023/02/19 05:48:59;;;;;;;10.40;5.60;;;9.40;99.90;;;;;;4848788;29;20097;-86
2023/02/19 05:51:36;;;;;;;10.88;4.93;;;9.40;99.90;;;;;;4833448;29;20063;-86
2023/02/19 05:54:04;;;;;;;9.70;4.88;;;9.40;99.90;;;;;;4835519;29;20105;-86
2023/02/19 05:56:36;;;;;;;13.07;5.35;;;9.40;99.90;;;;;;4848009;29;20053;-86
2023/02/19 05:59:13;;;;;;;8.75;5.07;;;9.40;99.90;;;;;;4863184;29;20053;-86
2023/02/19 06:01:40;;;;;;;7.90;4.72;;;9.40;99.90;;;;;;4863526;29;20084;-86
2023/02/19 06:04:09;;;;;;;10.40;4.85;;;9.40;99.90;;;;;;4863984;29;20057;-87
2023/02/19 06:06:37;;;;;;;11.20;4.95;;;9.40;99.90;;;;;;4863012;29;20144;-87
2023/02/19 06:09:06;;;;;;;11.38;4.70;;;9.40;99.90;;;;;;4847876;29;20073;-86
2023/02/19 06:11:38;;;;;;;8.00;4.72;;;9.40;99.90;;;;;;4862937;29;20056;-86
2023/02/19 06:14:05;;;;;;;7.25;3.67;;;9.40;99.90;;;;;;4863349;29;20629;-85
2023/02/19 06:16:33;;;;;;;7.80;3.80;;;9.40;99.90;;;;;;4862939;29;20071;-86
2023/02/19 06:19:04;;;;;;;10.02;3.50;;;9.40;99.90;;;;;;4862977;29;20053;-86
2023/02/19 06:21:31;;;;;;;7.93;4.22;;;9.40;99.90;;;;;;4863135;29;20446;-87
2023/02/19 06:24:02;;;;;;;9.40;4.13;;;9.40;99.90;;;;;;4847459;29;20104;-87
2023/02/19 06:26:32;;;;;;;7.28;3.58;;;9.40;99.90;;;;;;4862488;29;20041;-86
2023/02/19 06:29:02;;;;;;;6.38;3.22;;;9.40;99.90;;;;;;4838165;29;20053;-86
2023/02/19 06:31:29;;;;;;;9.15;3.90;;;9.40;99.90;;;;;;4861348;29;20105;-85
2023/02/19 06:34:03;;;;;;;17.40;6.55;;;9.40;99.90;;;;;;4845631;29;20470;-85
2023/02/19 06:36:30;;;;;;;9.88;5.03;;;9.30;99.90;;;;;;4843397;29;20497;-85
2023/02/19 06:39:03;;;;;;;11.93;5.40;;;9.30;99.90;;;;;;4847167;29;20049;-85
2023/02/19 06:41:31;;;;;;;12.20;4.47;;;9.30;99.90;;;;;;4862409;29;20470;-86
2023/02/19 06:43:58;;;;;;;14.50;5.28;;;9.30;99.90;;;;;;4862803;29;20045;-85
2023/02/19 06:46:26;;;;;;;10.13;5.35;;;9.30;99.90;;;;;;4862382;29;20454;-85
2023/02/19 06:48:57;;;;;;;8.15;4.50;;;9.30;99.90;;;;;;4850062;29;20088;-85
2023/02/19 06:51:26;;;;;;;12.70;5.10;;;9.30;99.90;;;;;;4847154;29;20532;-85
2023/02/19 06:53:55;;;;;;;9.20;5.03;;;9.30;99.90;;;;;;4847440;29;20401;-84
2023/02/19 06:56:32;;;;;;;10.13;4.60;;;9.30;99.90;;;;;;4847240;29;20049;-85
2023/02/19 06:59:04;;;;;;;13.35;3.85;;;9.30;99.90;;;;;;4863120;29;20105;-85
2023/02/19 07:01:35;;;;;;;9.73;4.13;;;9.30;99.90;;;;;;4854891;29;20053;-85
2023/02/19 07:04:03;;;;;;;8.32;4.70;;;9.30;99.90;;;;;;4862861;29;20065;-85
2023/02/19 07:06:31;;;;;;;9.23;4.88;;;9.30;99.90;;;;;;4865992;29;20056;-85
2023/02/19 07:08:59;;;;;;;8.30;4.38;;;9.30;99.90;;;;;;4865682;29;20095;-85
2023/02/19 07:11:29;;;;;;;12.35;5.25;;;9.30;99.90;;;;;;4866028;29;20041;-85
2023/02/19 07:13:59;;;;;;;11.57;4.90;;;9.30;99.90;;;;;;4866149;29;20049;-86
2023/02/19 07:16:30;;;;;;;10.50;4.93;;;9.30;99.90;;;;;;4866159;29;20161;-86
2023/02/19 07:18:59;;;;;;;13.10;5.35;;;9.30;99.90;;;;;;4850651;29;20049;-86
2023/02/19 07:21:29;;;;;;;9.60;5.05;;;9.30;99.90;;;;;;4865889;29;20478;-86
2023/02/19 07:23:59;;;;;;;11.75;5.25;;;9.30;99.90;;;;;;4865432;29;20135;-86
2023/02/19 07:26:26;;;;;;;7.75;4.47;;;9.30;99.90;;;;;;4850299;29;21659;-85
2023/02/19 07:28:54;;;;;;;11.27;4.70;;;9.30;99.90;;;;;;4865531;29;20037;-85
2023/02/19 07:31:23;;;;;;;13.70;5.65;;;9.30;99.90;;;;;;4865434;29;20061;-85
2023/02/19 07:33:54;;;;;;;12.73;6.50;;;9.30;99.90;;;;;;4865622;29;20092;-84
2023/02/19 07:36:23;;;;;;;13.27;6.63;;;9.30;99.90;;;;;;4850045;29;20049;-85
2023/02/19 07:38:59;;;;;;;19.20;7.18;;;9.20;99.90;;;;;;4865871;29;20052;-86
2023/02/19 07:41:29;;;;;;;13.15;6.97;;;9.20;99.90;;;;;;4865354;29;20049;-87
2023/02/19 07:44:00;;;;;;;10.70;6.10;;;9.20;99.90;;;;;;4850985;29;20080;-86
2023/02/19 07:46:30;;;;;;;13.13;6.15;;;9.20;99.90;;;;;;4851847;29;20462;-87
2023/02/19 07:48:58;;;;;;;11.35;5.93;;;9.30;99.90;;;;;;4865546;29;20140;-87
2023/02/19 07:51:25;;;;;;;11.18;6.38;;;9.30;99.90;;;;;;4865471;29;20057;-85
2023/02/19 07:53:56;;;;;;;10.98;6.75;;;9.30;99.90;;;;;;4865769;29;20053;-84
2023/02/19 07:56:23;;;;;;;11.90;6.10;;;9.30;99.90;;;;;;4866129;29;20049;-86
2023/02/19 07:58:50;;;;;;;14.00;6.60;;;9.30;99.90;;;;;;4872389;29;20087;-85
2023/02/19 08:02:58;;;;;;;12.13;6.95;;;9.30;99.90;;;;;;4865356;29;20045;-86
2023/02/19 08:04:12;;;;;;;11.23;6.55;;;9.30;99.90;;;;;;4870551;29;20044;-85
2023/02/19 08:06:40;;;;;;;9.93;6.45;;;9.30;99.90;;;;;;4883822;29;20053;-87
2023/02/19 08:13:21;;;;;;;10.88;5.57;;;9.40;99.90;;;;;;4865864;29;20037;-90
2023/02/19 08:15:53;;;;;;;14.27;7.38;;;9.40;99.90;;;;;;4864904;29;20080;-86
2023/02/19 08:18:31;;;;;;;16.17;7.35;;;9.40;99.90;;;;;;4861845;29;20108;-87
2023/02/19 08:21:00;;;;;;;14.82;7.03;;;9.40;99.90;;;;;;4870487;29;20087;-87
2023/02/19 08:23:27;;;;;;;14.43;7.30;;;9.40;99.90;;;;;;4864798;29;20045;-86
2023/02/19 08:25:59;;;;;;;17.05;8.25;;;9.40;99.90;;;;;;4864723;29;20049;-86
2023/02/19 08:28:30;;;;;;;13.20;6.82;;;9.40;99.90;;;;;;4864431;29;20155;-86
2023/02/19 08:31:03;;;;;;;14.30;7.43;;;9.40;99.90;;;;;;4834484;29;20497;-86
2023/02/19 08:33:38;;;;;;;11.70;6.72;;;9.50;99.90;;;;;;4864579;29;20084;-86
2023/02/19 08:36:08;;;;;;;13.35;7.32;;;9.50;99.90;;;;;;4864255;29;20068;-86
2023/02/19 08:38:36;;;;;;;12.20;6.53;;;9.50;99.90;;;;;;4849124;29;20502;-86
2023/02/19 08:41:14;;;;;;;14.60;7.22;;;9.50;99.90;;;;;;4848818;29;20049;-86
2023/02/19 08:43:48;;;;;;;15.63;7.32;;;9.50;99.90;;;;;;4849932;29;20105;-87
2023/02/19 08:46:36;;;;;;;13.90;6.40;;;9.60;99.90;;;;;;4864083;29;20048;-86
2023/02/19 08:49:12;;;;;;;13.80;7.03;;;9.60;99.90;;;;;;4836934;29;20125;-85
2023/02/19 08:51:39;;;;;;;16.08;8.07;;;9.70;99.90;;;;;;4849158;29;20077;-84
2023/02/19 08:54:06;;;;;;;16.25;7.53;;;9.70;99.90;;;;;;4861070;29;20088;-85
2023/02/19 08:56:33;;;;;;;15.93;7.65;;;9.70;99.90;;;;;;4863893;29;20052;-84
2023/02/19 08:59:00;;;;;;;11.55;6.70;;;9.80;99.90;;;;;;4863461;29;20084;-85
2023/02/19 09:01:30;;;;;;;14.23;6.40;;;9.90;99.90;;;;;;4863565;29;20049;-85
2023/02/19 09:03:58;;;;;;;16.58;7.03;;;9.90;99.90;;;;;;4863700;29;20069;-84
2023/02/19 09:06:25;;;;;;;15.32;7.43;;;10.00;99.90;;;;;;4873278;29;20055;-85
2023/02/19 09:08:52;;;;;;;19.02;7.45;;;9.90;99.90;;;;;;4848228;29;20115;-85
2023/02/19 09:11:19;;;;;;;17.65;7.47;;;9.90;99.90;;;;;;4874582;29;20049;-84
2023/02/19 09:13:47;;;;;;;15.18;7.38;;;10.00;99.90;;;;;;4863884;29;20098;-84
2023/02/19 09:16:14;;;;;;;19.27;8.88;;;9.90;99.90;;;;;;4848474;29;20068;-85
2023/02/19 09:18:44;;;;;;;14.20;7.60;;;10.00;99.90;;;;;;4863674;29;20458;-84
2023/02/19 09:21:11;;;;;;;14.73;6.43;;;10.00;99.90;;;;;;4848056;29;20417;-85
2023/02/19 09:23:39;;;;;;;12.40;5.55;;;10.00;99.90;;;;;;4848081;29;20097;-84
2023/02/19 09:26:14;;;;;;;16.55;8.55;;;10.00;99.90;;;;;;4863376;29;20413;-87
2023/02/19 09:28:46;;;;;;;13.88;7.57;;;10.00;99.90;;;;;;4850078;29;20056;-89
2023/02/19 09:31:14;;;;;;;14.13;7.32;;;10.00;99.90;;;;;;4848747;29;20466;-87
2023/02/19 09:33:47;;;;;;;18.17;8.45;;;10.00;99.90;;;;;;4863136;29;20100;-85
2023/02/19 09:36:19;;;;;;;12.25;6.50;;;10.00;99.90;;;;;;4844984;29;20057;-88
2023/02/19 09:38:47;;;;;;;13.07;7.45;;;10.10;99.90;;;;;;4851045;29;20057;-85
2023/02/19 09:41:35;;;;;;;15.60;6.75;;;10.10;99.90;;;;;;4863584;29;20067;-90
2023/02/19 09:44:49;;;;;;;12.15;6.88;;;10.10;99.90;;;;;;4864437;29;20127;-89
2023/02/19 09:52:03;;;;;;;9.55;5.30;;;10.10;99.90;;;;;;4746399;30;20056;-91
2023/02/19 10:00:05;;;;;;;;;;;;;;;;;;;;;
2023/02/19 10:03:47;;;;;;;11.95;7.15;;;10.00;99.90;;;;;;4666440;30;20058;-90
2023/02/19 10:06:39;;;;;;;10.63;6.38;;;9.90;99.90;;;;;;4699606;30;20614;-91
2023/02/19 10:09:22;;;;;;;12.38;6.93;;;9.80;99.90;;;;;;4699404;30;20066;-90
2023/02/19 10:12:03;;;;;;;9.60;5.82;;;9.80;99.90;;;;;;4713990;30;20059;-92
2023/02/19 10:14:50;;;;;;;11.23;6.07;;;9.80;99.90;;;;;;4720848;30;20053;-91
2023/02/19 10:17:23;;;;;;;8.70;4.97;;;9.80;99.90;;;;;;4706641;30;20056;-89
2023/02/19 10:19:57;;;;;;;12.25;6.55;;;9.90;99.90;;;;;;4705995;30;20044;-89
2023/02/19 10:25:16;;;;;;;7.75;4.38;;;9.80;99.90;;;;;;4722905;30;20053;-88
2023/02/19 10:28:14;;;;;;;12.82;5.95;;;9.80;99.90;;;;;;4741101;29;20139;-93
2023/02/19 10:31:38;;;;;;;14.20;7.25;;;9.80;99.90;;;;;;4775228;29;20063;-91
2023/02/19 10:34:43;;;;;;;14.27;7.13;;;9.80;99.90;;;;;;4802774;29;20169;-94
2023/02/19 10:37:57;;;;;;;;;;;;;;;;;;;;;
2023/02/19 10:40:44;;;;;;;11.95;6.38;;;9.90;99.90;;;;;;4761393;30;20055;-92
2023/02/19 10:43:32;;;;;;;13.35;7.05;;;9.90;99.90;;;;;;4771956;30;20059;-87
2023/02/19 10:46:36;;;;;;;11.50;5.75;;;9.80;99.90;;;;;;4771187;30;20162;-87
2023/02/19 10:49:32;;;;;;;12.10;5.45;;;9.90;99.90;;;;;;4756623;30;20048;-89
2023/02/19 10:52:16;;;;;;;10.48;5.53;;;9.90;99.90;;;;;;4772562;30;20052;-90
2023/02/19 10:54:52;;;;;;;8.45;4.88;;;9.80;99.90;;;;;;4757390;30;20052;-88
2023/02/19 10:57:29;;;;;;;10.25;3.63;;;9.80;99.90;;;;;;4771488;30;20109;-90
2023/02/19 11:00:02;;;;;;;5.80;2.90;;;9.70;99.90;;;;;;4760133;30;20125;-88
2023/02/19 11:02:30;;;;;;;6.15;2.72;;;9.60;99.90;;;;;;4794289;29;20145;-92
2023/02/19 11:05:03;;;;;;;9.75;4.72;;;9.60;99.90;;;;;;4811185;29;20046;-94
2023/02/19 11:07:31;;;;;;;8.02;3.55;;;9.60;99.90;;;;;;4809777;29;20512;-93
2023/02/19 11:10:19;;;;;;;5.82;2.90;;;9.50;99.90;;;;;;4795682;29;20055;-90
2023/02/19 11:13:10;;;;;;;5.22;2.20;;;9.50;99.90;;;;;;4853755;29;20152;-94
2023/02/19 11:16:03;;;;;;;4.70;1.77;;;9.60;99.90;;;;;;4867795;29;20045;-94
2023/02/19 11:18:52;;;;;;;4.07;1.63;;;9.60;99.90;;;;;;4844846;29;20074;-94
2023/02/19 11:26:01;;;;;;;3.38;1.15;;;9.70;99.90;;;;;;4894042;29;20039;-89
2023/02/19 11:28:37;;;;;;;4.07;1.30;;;9.70;99.90;;;;;;4852039;29;20049;-93
2023/02/19 11:31:40;;;;;;;3.75;1.30;;;9.70;99.90;;;;;;4873580;29;20057;-90
2023/02/19 11:34:34;;;;;;;2.53;1.10;;;9.70;99.90;;;;;;4867754;29;20053;-95
2023/02/19 11:37:17;;;;;;;2.95;0.93;;;9.60;99.90;;;;;;4860154;29;20049;-94
2023/02/19 11:39:50;;;;;;;1.75;0.70;;;9.70;99.90;;;;;;4865339;29;20061;-89
2023/02/19 11:42:28;;;;;;;3.53;0.70;;;9.90;99.90;;;;;;4849498;29;20050;-89
2023/02/19 11:45:26;;;;;;;3.85;1.10;;;10.00;99.90;;;;;;4834818;29;20053;-86
2023/02/19 11:48:02;;;;;;;2.78;0.70;;;10.10;99.90;;;;;;4881959;29;20067;-96
2023/02/19 11:51:06;;;;;;;2.40;0.90;;;10.10;99.90;;;;;;4880358;29;20052;-95
2023/02/19 11:53:38;;;;;;;3.53;1.38;;;10.20;99.90;;;;;;4866946;29;20490;-91
2023/02/19 11:56:11;;;;;;;2.88;1.35;;;10.30;99.90;;;;;;4873779;29;20523;-87
2023/02/19 11:59:25;;;;;;;2.25;0.73;;;10.40;99.90;;;;;;4870136;29;20060;-89
2023/02/19 12:02:48;;;;;;;2.00;0.80;;;10.60;99.90;;;;;;4812706;29;20490;-86
2023/02/19 12:05:28;;;;;;;1.77;0.60;;;10.70;99.90;;;;;;4866380;29;20049;-89
2023/02/19 12:08:19;;;;;;;1.95;0.82;;;10.70;99.90;;;;;;4871115;29;20399;-88
2023/02/19 12:11:17;;;;;;;2.53;0.95;;;10.90;99.90;;;;;;4849837;29;20379;-85
2023/02/19 12:14:07;;;;;;;1.63;0.60;;;10.90;99.90;;;;;;4871596;29;20045;-87
2023/02/19 12:17:25;;;;;;;1.42;0.60;;;10.90;99.90;;;;;;4832929;29;20087;-86
2023/02/19 12:20:39;;;;;;;2.17;0.43;;;10.90;99.90;;;;;;4812148;29;20106;-88
2023/02/19 12:24:28;;;;;;;1.98;0.60;;;10.90;99.90;;;;;;4875301;29;20053;-91
2023/02/19 12:32:08;;;;;;;;;;;;;;;;;;;;;
2023/02/19 12:35:09;;;;;;;2.10;1.25;;;10.50;99.90;;;;;;4735655;30;20533;-90
2023/02/19 12:38:42;;;;;;;2.58;0.77;;;10.50;99.90;;;;;;4675460;30;20066;-89
2023/02/19 12:41:58;;;;;;;2.45;0.75;;;10.40;99.90;;;;;;4665054;30;20535;-86
2023/02/19 12:45:19;;;;;;;2.08;0.85;;;10.40;99.90;;;;;;4665739;30;20117;-87
2023/02/19 12:48:47;;;;;;;2.45;0.75;;;10.40;99.90;;;;;;4655120;30;20157;-90
2023/02/19 12:52:39;;;;;;;1.60;0.57;;;10.40;99.90;;;;;;4724706;30;20053;-90
2023/02/19 12:56:13;;;;;;;;;;;;;;;;;;;;;
2023/02/19 13:00:06;;;;;;;;;;;;;;;;;;;;;
2023/02/19 13:03:21;;;;;;;;;;;;;;;;;;;;;
2023/02/19 13:10:33;;;;;;;1.38;0.38;;;10.40;99.90;;;;;;4730898;30;20021;-91
2023/02/19 13:13:49;;;;;;;0.75;0.30;;;10.40;99.90;;;;;;4752363;30;20521;-90
2023/02/19 13:16:43;;;;;;;;;;;;;;;;;;;;;
2023/02/19 13:19:45;;;;;;;1.30;0.30;;;10.20;99.90;;;;;;4791648;29;20068;-89
2023/02/19 13:25:46;;;;;;;1.23;0.30;;;10.10;99.90;;;;;;4822659;29;20047;-87
2023/02/19 13:28:21;;;;;;;;;;;10.00;99.90;;;;;;4822738;29;20432;-86
2023/02/19 13:31:20;;;;;;;;;;;;;;;;;;;;;
2023/02/19 13:34:53;;;;;;;1.70;0.43;;;9.80;99.90;;;;;;4852526;29;20053;-87
2023/02/19 13:37:53;;;;;;;1.27;0.30;;;9.80;99.90;;;;;;4867633;29;20081;-88
2023/02/19 13:41:00;;;;;;;0.75;0.30;;;9.90;99.90;;;;;;4824730;29;20042;-86
2023/02/19 13:43:49;;;;;;;;;;;;;;;;;;;;;
2023/02/19 13:46:47;;;;;;;0.40;0.20;;;9.90;99.90;;;;;;4854903;29;20085;-87
2023/02/19 13:52:29;;;;;;;1.27;0.30;;;9.90;99.90;;;;;;4824085;29;19939;-87
2023/02/19 13:55:37;;;;;;;1.17;0.30;;;9.80;99.90;;;;;;4825034;29;20053;-88
2023/02/19 13:58:32;;;;;;;1.55;0.70;;;9.90;99.90;;;;;;4830513;29;20053;-87
2023/02/19 14:01:04;;;;;;;1.05;0.30;;;9.80;99.90;;;;;;4839505;29;20056;-87
2023/02/19 14:03:53;;;;;;;1.02;0.32;;;9.80;99.90;;;;;;4863463;29;20493;-90
2023/02/19 14:07:00;;;;;;;;;;;;;;;;;;;;;
2023/02/19 14:09:58;;;;;;;0.93;0.57;;;9.80;99.90;;;;;;4856222;29;20493;-92
2023/02/19 14:12:45;;;;;;;1.15;0.40;;;9.80;99.90;;;;;;4866985;29;20052;-92
2023/02/19 14:15:42;;;;;;;1.17;0.40;;;9.80;99.90;;;;;;4863293;29;20076;-87
2023/02/19 14:18:41;;;;;;;2.08;1.00;;;9.70;99.90;;;;;;4848054;29;20501;-87
2023/02/19 14:21:24;;;;;;;2.42;0.82;;;9.70;99.90;;;;;;4863031;29;20135;-87
2023/02/19 14:23:57;;;;;;;1.33;0.60;;;9.60;99.90;;;;;;4853489;29;20052;-87
2023/02/19 14:26:31;;;;;;;1.70;0.73;;;9.50;99.90;;;;;;4868329;29;20045;-88
2023/02/19 14:28:59;;;;;;;1.65;0.73;;;9.40;99.90;;;;;;4852719;29;20049;-88
2023/02/19 14:31:30;;;;;;;1.50;0.70;;;9.40;99.90;;;;;;4863494;29;20075;-88
2023/02/19 14:34:22;;;;;;;2.20;1.00;;;9.30;99.90;;;;;;4862478;29;20056;-87
2023/02/19 14:36:59;;;;;;;2.28;0.98;;;9.20;99.90;;;;;;4874282;29;20072;-86
2023/02/19 14:39:35;;;;;;;2.47;1.10;;;9.10;99.90;;;;;;4862708;29;20049;-86
2023/02/19 14:42:07;;;;;;;2.22;1.30;;;9.10;99.90;;;;;;4847499;29;20108;-86
2023/02/19 14:44:49;;;;;;;2.25;0.70;;;9.00;99.90;;;;;;4865747;29;20053;-87
2023/02/19 14:47:26;;;;;;;2.10;0.80;;;9.00;99.90;;;;;;4863371;29;20124;-88
2023/02/19 14:50:46;;;;;;;1.17;0.47;;;9.00;99.90;;;;;;4857066;29;20041;-87
2023/02/19 14:53:26;;;;;;;2.22;0.80;;;9.00;99.90;;;;;;4859645;29;20553;-86
2023/02/19 14:55:57;;;;;;;3.50;1.30;;;9.00;99.90;;;;;;4862787;29;20135;-87
2023/02/19 14:58:32;;;;;;;5.35;2.30;;;9.00;99.90;;;;;;4862858;29;20055;-87